Time;durP1;ratioP1;P1;durP2;ratioP2;P2;SDS_P1;SDS_P2;PMS_P1;PMS_P2;Temp;Humidity;BMP_temperature;BMP_pressure;BME280_temperature;BME280_humidity;BME280_pressure;Samples;Min_cycle;Max_cycle;Signal;HPM_P1;HPM_P2
2024/01/18 00:01:34;;;;;;;22.08;13.68;;;1.80;99.90;;;;;;4126163;28;20030;-66
2024/01/18 00:03:38;;;;;;;25.67;12.43;;;1.70;99.90;;;;;;4126855;28;20043;-66
2024/01/18 00:05:39;;;;;;;33.47;15.45;;;1.70;99.90;;;;;;4125573;28;20046;-66
2024/01/18 00:07:39;;;;;;;25.60;13.63;;;1.80;99.90;;;;;;4126953;28;20030;-66
2024/01/18 00:09:40;;;;;;;24.70;12.43;;;1.70;99.90;;;;;;4127459;28;20039;-66
2024/01/18 00:11:41;;;;;;;25.23;12.95;;;1.70;99.90;;;;;;4127096;28;20062;-66
2024/01/18 00:13:41;;;;;;;24.33;13.55;;;1.70;99.90;;;;;;4127705;28;20042;-66
2024/01/18 00:15:42;;;;;;;24.45;12.45;;;1.70;99.90;;;;;;4125103;28;20039;-66
2024/01/18 00:17:42;;;;;;;22.63;12.15;;;1.70;99.90;;;;;;4126500;28;20030;-66
2024/01/18 00:19:43;;;;;;;22.17;13.07;;;1.80;99.90;;;;;;4125944;28;20582;-66
2024/01/18 00:21:43;;;;;;;28.88;13.18;;;1.70;99.90;;;;;;4127080;28;20050;-67
2024/01/18 00:23:44;;;;;;;26.95;14.32;;;1.70;99.90;;;;;;4128295;28;20044;-63
2024/01/18 00:25:45;;;;;;;22.85;13.38;;;1.70;99.90;;;;;;4126783;28;20349;-63
2024/01/18 00:27:45;;;;;;;24.63;13.30;;;1.70;99.90;;;;;;4127648;28;20042;-64
2024/01/18 00:29:46;;;;;;;29.80;14.60;;;1.70;99.90;;;;;;4126202;28;20038;-63
2024/01/18 00:31:46;;;;;;;21.42;12.57;;;1.70;99.90;;;;;;4125412;28;20121;-63
2024/01/18 00:33:47;;;;;;;24.02;13.10;;;1.70;99.90;;;;;;4126774;28;20044;-63
2024/01/18 00:35:48;;;;;;;25.92;12.98;;;1.70;99.90;;;;;;4125000;28;20483;-63
2024/01/18 00:37:48;;;;;;;23.35;12.15;;;1.70;99.90;;;;;;4128775;28;20486;-63
2024/01/18 00:39:49;;;;;;;25.02;12.88;;;1.70;99.90;;;;;;4127994;28;20030;-63
2024/01/18 00:41:50;;;;;;;22.98;13.02;;;1.70;99.90;;;;;;4123880;28;20038;-63
2024/01/18 00:43:50;;;;;;;28.52;13.50;;;1.70;99.90;;;;;;4127633;28;20068;-63
2024/01/18 00:45:51;;;;;;;23.40;12.23;;;1.70;99.90;;;;;;4125211;28;20038;-63
2024/01/18 00:47:51;;;;;;;22.58;13.00;;;1.70;99.90;;;;;;4126170;28;20095;-63
2024/01/18 00:49:52;;;;;;;23.77;13.35;;;1.70;99.90;;;;;;4126389;28;20051;-63
2024/01/18 00:51:53;;;;;;;20.55;10.73;;;1.70;99.90;;;;;;4125388;28;20118;-63
2024/01/18 00:53:53;;;;;;;20.58;12.05;;;1.70;99.90;;;;;;4127122;28;20069;-63
2024/01/18 00:55:54;;;;;;;21.25;11.80;;;1.80;99.90;;;;;;4124492;28;20039;-63
2024/01/18 00:57:54;;;;;;;21.35;11.98;;;1.80;99.90;;;;;;4126740;28;20068;-63
2024/01/18 00:59:55;;;;;;;24.40;13.32;;;1.80;99.90;;;;;;4125850;28;20869;-63
2024/01/18 01:01:55;;;;;;;23.42;12.77;;;1.80;99.90;;;;;;4138932;28;20043;-63
2024/01/18 01:03:56;;;;;;;21.80;12.88;;;1.80;99.90;;;;;;4140394;28;20072;-63
2024/01/18 01:05:57;;;;;;;23.35;12.52;;;1.80;99.90;;;;;;4128857;28;20479;-63
2024/01/18 01:07:57;;;;;;;23.83;12.73;;;1.80;99.90;;;;;;4129827;28;20030;-63
2024/01/18 01:09:58;;;;;;;27.70;12.95;;;1.80;99.90;;;;;;4129245;28;20050;-63
2024/01/18 01:11:58;;;;;;;22.52;13.55;;;1.80;99.90;;;;;;4128416;28;20518;-63
2024/01/18 01:13:59;;;;;;;26.33;13.55;;;1.80;99.90;;;;;;4129475;28;20390;-63
2024/01/18 01:16:00;;;;;;;20.38;11.95;;;1.80;99.90;;;;;;4126686;28;20036;-63
2024/01/18 01:18:00;;;;;;;24.67;13.27;;;1.80;99.90;;;;;;4141741;28;20480;-63
2024/01/18 01:20:01;;;;;;;25.50;12.90;;;1.80;99.90;;;;;;4129751;28;20042;-63
2024/01/18 01:22:02;;;;;;;24.67;13.07;;;1.80;99.90;;;;;;4136658;28;20482;-63
2024/01/18 01:24:03;;;;;;;25.48;13.32;;;1.80;99.90;;;;;;4141114;28;20122;-63
2024/01/18 01:26:03;;;;;;;23.50;12.52;;;1.80;99.90;;;;;;4128079;28;20518;-63
2024/01/18 01:28:05;;;;;;;25.20;14.23;;;1.80;99.90;;;;;;4129245;28;20034;-63
2024/01/18 01:30:06;;;;;;;24.08;13.40;;;1.80;99.90;;;;;;4128856;28;20034;-63
2024/01/18 01:32:06;;;;;;;22.90;13.02;;;1.80;99.90;;;;;;4129101;28;20046;-63
2024/01/18 01:34:07;;;;;;;21.08;13.02;;;1.80;99.90;;;;;;4129637;28;20426;-66
2024/01/18 01:36:08;;;;;;;23.13;12.50;;;1.80;99.90;;;;;;4130485;28;20050;-64
2024/01/18 01:38:08;;;;;;;25.17;12.63;;;1.70;99.90;;;;;;4128306;28;20058;-64
2024/01/18 01:40:09;;;;;;;22.52;12.85;;;1.80;99.90;;;;;;4126688;28;20056;-63
2024/01/18 01:42:10;;;;;;;29.35;14.55;;;1.80;99.90;;;;;;4130362;28;20034;-63
2024/01/18 01:44:11;;;;;;;26.35;13.05;;;1.70;99.90;;;;;;4140104;28;20038;-67
2024/01/18 01:46:12;;;;;;;21.80;12.82;;;1.70;99.90;;;;;;4127825;28;20464;-67
2024/01/18 01:48:13;;;;;;;22.83;12.07;;;1.70;99.90;;;;;;4128844;28;20490;-67
2024/01/18 01:50:14;;;;;;;25.17;13.05;;;1.70;99.90;;;;;;4151242;28;20041;-67
2024/01/18 01:52:16;;;;;;;25.13;13.35;;;1.70;99.90;;;;;;4135187;28;20117;-67
2024/01/18 01:54:19;;;;;;;21.10;12.35;;;1.70;99.90;;;;;;4127581;28;20034;-67
2024/01/18 01:56:21;;;;;;;24.92;12.38;;;1.70;99.90;;;;;;4130254;28;20558;-67
2024/01/18 01:58:22;;;;;;;22.80;12.35;;;1.80;99.90;;;;;;4128496;28;20109;-67
2024/01/18 02:00:23;;;;;;;25.20;13.15;;;1.70;99.90;;;;;;4127459;28;20117;-67
2024/01/18 02:02:23;;;;;;;24.65;13.48;;;1.80;99.90;;;;;;4134163;28;20042;-67
2024/01/18 02:04:25;;;;;;;23.02;12.95;;;1.70;99.90;;;;;;4137711;28;20042;-67
2024/01/18 02:06:26;;;;;;;22.07;12.80;;;1.70;99.90;;;;;;4128970;28;20129;-67
2024/01/18 02:08:28;;;;;;;21.95;12.35;;;1.70;99.90;;;;;;4128001;28;20030;-67
2024/01/18 02:10:28;;;;;;;21.13;12.20;;;1.70;99.90;;;;;;4129315;28;20038;-67
2024/01/18 02:12:30;;;;;;;21.23;12.38;;;1.80;99.90;;;;;;4139543;28;20044;-67
2024/01/18 02:14:31;;;;;;;28.40;14.33;;;1.70;99.90;;;;;;4138171;28;20038;-67
2024/01/18 02:16:32;;;;;;;23.77;13.82;;;1.80;99.90;;;;;;4127579;28;20722;-67
2024/01/18 02:18:35;;;;;;;24.30;13.20;;;1.80;99.90;;;;;;4128265;28;20031;-67
2024/01/18 02:20:36;;;;;;;21.67;13.00;;;1.80;99.90;;;;;;4135759;28;20045;-67
2024/01/18 02:22:44;;;;;;;23.10;12.48;;;1.80;99.90;;;;;;4139848;28;20561;-67
2024/01/18 02:24:50;;;;;;;21.75;11.98;;;1.80;99.90;;;;;;4143097;28;20096;-67
2024/01/18 02:26:50;;;;;;;21.58;12.70;;;1.70;99.90;;;;;;4128871;28;20034;-67
2024/01/18 02:28:56;;;;;;;20.38;10.82;;;1.80;99.90;;;;;;4129192;28;20086;-67
2024/01/18 02:30:57;;;;;;;23.38;12.43;;;1.80;99.90;;;;;;4124983;28;20495;-67
2024/01/18 02:32:58;;;;;;;19.42;10.93;;;1.70;99.90;;;;;;4127930;28;20712;-67
2024/01/18 02:34:58;;;;;;;20.05;12.32;;;1.70;99.90;;;;;;4133104;28;20069;-67
2024/01/18 02:36:59;;;;;;;24.83;12.60;;;1.80;99.90;;;;;;4140022;28;20117;-67
2024/01/18 02:39:00;;;;;;;24.10;12.52;;;1.70;99.90;;;;;;4126379;28;20124;-67
2024/01/18 02:41:01;;;;;;;22.27;12.48;;;1.70;99.90;;;;;;4133143;28;20026;-67
2024/01/18 02:43:01;;;;;;;22.33;12.38;;;1.80;99.90;;;;;;4134940;28;20041;-66
2024/01/18 02:45:03;;;;;;;22.65;12.80;;;1.80;99.90;;;;;;4143217;28;20230;-67
2024/01/18 02:47:04;;;;;;;20.55;11.50;;;1.80;99.90;;;;;;4140498;28;20057;-66
2024/01/18 02:49:05;;;;;;;30.52;13.27;;;1.70;99.90;;;;;;4127634;28;20053;-66
2024/01/18 02:51:05;;;;;;;20.23;12.25;;;1.70;99.90;;;;;;4128501;28;20116;-66
2024/01/18 02:53:06;;;;;;;21.42;12.65;;;1.70;99.90;;;;;;4135267;28;20039;-66
2024/01/18 02:55:07;;;;;;;21.55;12.30;;;1.70;99.90;;;;;;4127179;28;20046;-67
2024/01/18 02:57:08;;;;;;;18.45;11.38;;;1.70;99.90;;;;;;4127583;28;20046;-66
2024/01/18 02:59:08;;;;;;;19.38;12.38;;;1.70;99.90;;;;;;4127993;28;20419;-66
2024/01/18 03:01:09;;;;;;;19.83;11.73;;;1.70;99.90;;;;;;4123430;28;20030;-67
2024/01/18 03:03:09;;;;;;;20.95;11.88;;;1.70;99.90;;;;;;4127427;28;20035;-66
2024/01/18 03:05:10;;;;;;;20.58;12.00;;;1.70;99.90;;;;;;4127666;28;20490;-66
2024/01/18 03:07:11;;;;;;;19.95;11.65;;;1.70;99.90;;;;;;4137417;28;20412;-66
2024/01/18 03:09:14;;;;;;;20.52;11.32;;;1.70;99.90;;;;;;4128955;28;20410;-67
2024/01/18 03:11:15;;;;;;;19.83;11.57;;;1.70;99.90;;;;;;4140007;28;20031;-67
2024/01/18 03:13:16;;;;;;;25.48;12.65;;;1.70;99.90;;;;;;4133685;28;20072;-67
2024/01/18 03:15:16;;;;;;;20.50;11.93;;;1.70;99.90;;;;;;4133247;28;20485;-67
2024/01/18 03:17:17;;;;;;;17.15;10.63;;;1.70;99.90;;;;;;4147060;28;20654;-67
2024/01/18 03:19:18;;;;;;;25.83;13.02;;;1.80;99.90;;;;;;4130748;28;20052;-67
2024/01/18 03:21:18;;;;;;;20.23;11.20;;;1.70;99.90;;;;;;4139870;28;20049;-66
2024/01/18 03:23:19;;;;;;;20.77;11.25;;;1.80;99.90;;;;;;4131798;28;20041;-67
2024/01/18 03:25:19;;;;;;;18.15;11.57;;;1.70;99.90;;;;;;4129888;28;20402;-67
2024/01/18 03:27:20;;;;;;;20.77;11.80;;;1.80;99.90;;;;;;4130975;28;20042;-67
2024/01/18 03:29:21;;;;;;;19.50;11.88;;;1.70;99.90;;;;;;4140661;28;20134;-66
2024/01/18 03:31:21;;;;;;;19.17;11.57;;;1.70;99.90;;;;;;4144793;28;20030;-67
2024/01/18 03:33:22;;;;;;;22.00;11.60;;;1.80;99.90;;;;;;4144031;28;20390;-67
2024/01/18 03:35:22;;;;;;;22.13;10.95;;;1.70;99.90;;;;;;4154175;28;20041;-67
2024/01/18 03:37:23;;;;;;;18.27;10.98;;;1.70;99.90;;;;;;4142385;28;20152;-66
2024/01/18 03:39:24;;;;;;;21.27;11.30;;;1.70;99.90;;;;;;4130032;28;20039;-66
2024/01/18 03:41:24;;;;;;;21.45;11.70;;;1.70;99.90;;;;;;4144806;28;20041;-67
2024/01/18 03:43:25;;;;;;;21.85;12.13;;;1.70;99.90;;;;;;4140044;28;20081;-67
2024/01/18 03:45:25;;;;;;;21.08;12.20;;;1.70;99.90;;;;;;4142616;28;20116;-67
2024/01/18 03:47:26;;;;;;;21.67;11.93;;;1.70;99.90;;;;;;4130418;28;20094;-67
2024/01/18 03:49:26;;;;;;;21.88;13.20;;;1.70;99.90;;;;;;4144748;28;20046;-66
2024/01/18 03:51:27;;;;;;;21.10;12.27;;;1.70;99.90;;;;;;4138465;28;20113;-66
2024/01/18 03:53:27;;;;;;;20.90;12.30;;;1.70;99.90;;;;;;4138244;28;20463;-63
2024/01/18 03:55:28;;;;;;;23.48;12.60;;;1.70;99.90;;;;;;4129522;28;20034;-63
2024/01/18 03:57:29;;;;;;;21.17;12.60;;;1.70;99.90;;;;;;4128479;28;20034;-63
2024/01/18 03:59:29;;;;;;;24.90;13.32;;;1.70;99.90;;;;;;4130233;28;20201;-63
2024/01/18 04:01:33;;;;;;;20.73;11.80;;;1.70;99.90;;;;;;4129288;28;20475;-63
2024/01/18 04:03:34;;;;;;;21.63;13.23;;;1.70;99.90;;;;;;4130430;28;20121;-72
2024/01/18 04:05:35;;;;;;;22.65;12.70;;;1.70;99.90;;;;;;4132858;28;20403;-71
2024/01/18 04:07:38;;;;;;;26.27;13.00;;;1.70;99.90;;;;;;4141330;28;20031;-72
2024/01/18 04:09:38;;;;;;;20.77;12.25;;;1.70;99.90;;;;;;4140151;28;20049;-71
2024/01/18 04:11:39;;;;;;;20.30;11.40;;;1.70;99.90;;;;;;4126428;28;20039;-72
2024/01/18 04:13:40;;;;;;;21.73;13.10;;;1.70;99.90;;;;;;4140147;28;20030;-71
2024/01/18 04:15:40;;;;;;;24.98;13.77;;;1.70;99.90;;;;;;4137179;28;20037;-71
2024/01/18 04:17:41;;;;;;;25.92;12.60;;;1.70;99.90;;;;;;4145218;28;20522;-70
2024/01/18 04:19:41;;;;;;;23.50;13.57;;;1.70;99.90;;;;;;4132472;28;20046;-70
2024/01/18 04:21:43;;;;;;;23.58;13.77;;;1.70;99.90;;;;;;4141804;28;20391;-71
2024/01/18 04:23:44;;;;;;;22.40;12.48;;;1.70;99.90;;;;;;4133484;28;20577;-72
2024/01/18 04:25:44;;;;;;;22.83;13.68;;;1.60;99.90;;;;;;4127638;28;20038;-71
2024/01/18 04:27:45;;;;;;;20.67;12.65;;;1.70;99.90;;;;;;4131824;28;20031;-71
2024/01/18 04:29:46;;;;;;;22.88;13.23;;;1.60;99.90;;;;;;4134370;28;20553;-72
2024/01/18 04:31:46;;;;;;;23.67;13.13;;;1.60;99.90;;;;;;4136204;28;20390;-71
2024/01/18 04:33:47;;;;;;;24.02;13.45;;;1.60;99.90;;;;;;4137427;28;20029;-71
2024/01/18 04:35:47;;;;;;;24.38;11.85;;;1.60;99.90;;;;;;4136803;28;20030;-71
2024/01/18 04:37:48;;;;;;;26.02;12.48;;;1.60;99.90;;;;;;4137023;28;20479;-71
2024/01/18 04:39:48;;;;;;;22.17;12.70;;;1.60;99.90;;;;;;4137049;28;20124;-71
2024/01/18 04:41:49;;;;;;;25.38;15.07;;;1.60;99.90;;;;;;4136069;28;20041;-71
2024/01/18 04:43:49;;;;;;;27.27;14.40;;;1.60;99.90;;;;;;4133733;28;20495;-72
2024/01/18 04:45:50;;;;;;;25.42;13.88;;;1.60;99.90;;;;;;4136333;28;20034;-71
2024/01/18 04:47:56;;;;;;;24.80;13.35;;;1.60;99.90;;;;;;4137167;28;20092;-71
2024/01/18 04:49:57;;;;;;;22.13;13.85;;;1.60;99.90;;;;;;4133451;28;20129;-71
2024/01/18 04:51:59;;;;;;;27.10;14.07;;;1.60;99.90;;;;;;4134890;28;20066;-71
2024/01/18 04:54:00;;;;;;;23.30;13.55;;;1.60;99.90;;;;;;4139323;28;20099;-71
2024/01/18 04:56:01;;;;;;;24.77;12.73;;;1.60;99.90;;;;;;4140129;28;20126;-71
2024/01/18 04:58:01;;;;;;;25.58;13.98;;;1.60;99.90;;;;;;4144282;28;20475;-72
2024/01/18 05:00:08;;;;;;;24.42;13.85;;;1.60;99.90;;;;;;4133031;28;20042;-72
2024/01/18 05:02:10;;;;;;;28.25;14.93;;;1.60;99.90;;;;;;4128743;28;20053;-66
2024/01/18 05:04:10;;;;;;;23.73;13.65;;;1.50;99.90;;;;;;4129725;28;20042;-63
2024/01/18 05:06:11;;;;;;;25.33;13.77;;;1.50;99.90;;;;;;4133417;28;20046;-63
2024/01/18 05:08:12;;;;;;;21.40;13.32;;;1.50;99.90;;;;;;4138963;28;20073;-64
2024/01/18 05:10:12;;;;;;;23.42;12.80;;;1.50;99.90;;;;;;4125175;28;20047;-64
2024/01/18 05:12:13;;;;;;;24.42;13.32;;;1.50;99.90;;;;;;4142451;28;20034;-68
2024/01/18 05:14:14;;;;;;;20.50;12.70;;;1.50;99.90;;;;;;4135940;28;20031;-67
2024/01/18 05:16:14;;;;;;;29.70;15.15;;;1.50;99.90;;;;;;4117658;28;20142;-68
2024/01/18 05:18:15;;;;;;;24.58;14.35;;;1.50;99.90;;;;;;4111498;28;20038;-67
2024/01/18 05:20:15;;;;;;;23.83;13.00;;;1.60;99.90;;;;;;4123575;28;20039;-67
2024/01/18 05:22:17;;;;;;;22.42;13.30;;;1.50;99.90;;;;;;4129021;28;20042;-68
2024/01/18 05:24:17;;;;;;;27.52;14.98;;;1.50;99.90;;;;;;4127563;28;20871;-68
2024/01/18 05:26:18;;;;;;;23.75;13.85;;;1.50;99.90;;;;;;4127498;28;20478;-68
2024/01/18 05:28:19;;;;;;;23.58;14.25;;;1.50;99.90;;;;;;4122517;28;20387;-68
2024/01/18 05:30:21;;;;;;;27.38;14.55;;;1.50;99.90;;;;;;4128112;28;20103;-68
2024/01/18 05:32:21;;;;;;;24.20;13.65;;;1.50;99.90;;;;;;4125914;28;20088;-68
2024/01/18 05:34:22;;;;;;;23.23;12.32;;;1.50;99.90;;;;;;4124502;28;20038;-68
2024/01/18 05:36:23;;;;;;;25.05;13.00;;;1.50;99.90;;;;;;4130970;28;20447;-68
2024/01/18 05:38:23;;;;;;;20.13;12.70;;;1.50;99.90;;;;;;4141970;28;20034;-68
2024/01/18 05:40:24;;;;;;;22.70;13.25;;;1.50;99.90;;;;;;4141171;28;20041;-67
2024/01/18 05:42:27;;;;;;;20.90;11.75;;;1.50;99.90;;;;;;4143357;28;20025;-69
2024/01/18 05:44:28;;;;;;;20.90;12.20;;;1.50;99.90;;;;;;4129041;28;20030;-68
2024/01/18 05:46:29;;;;;;;22.92;12.57;;;1.50;99.90;;;;;;4127449;28;20360;-68
2024/01/18 05:48:29;;;;;;;22.50;12.90;;;1.50;99.90;;;;;;4128674;28;20104;-68
2024/01/18 05:50:30;;;;;;;21.70;13.23;;;1.50;99.90;;;;;;4130148;28;20049;-68
2024/01/18 05:52:30;;;;;;;23.92;12.30;;;1.50;99.90;;;;;;4141343;28;20505;-68
2024/01/18 05:54:33;;;;;;;20.45;11.98;;;1.50;99.90;;;;;;4141730;28;20046;-68
2024/01/18 05:56:33;;;;;;;18.70;11.43;;;1.50;99.90;;;;;;4128931;28;20394;-68
2024/01/18 05:58:34;;;;;;;20.10;11.95;;;1.50;99.90;;;;;;4122993;28;20042;-68
2024/01/18 06:00:34;;;;;;;19.15;11.90;;;1.50;99.90;;;;;;4127327;28;20581;-68
2024/01/18 06:02:35;;;;;;;22.20;12.68;;;1.50;99.90;;;;;;4129620;28;20074;-68
2024/01/18 06:04:36;;;;;;;23.70;12.77;;;1.50;99.90;;;;;;4127903;28;20044;-68
2024/01/18 06:06:36;;;;;;;21.27;12.32;;;1.50;99.90;;;;;;4139129;28;20038;-68
2024/01/18 06:08:37;;;;;;;22.95;11.85;;;1.50;99.90;;;;;;4131150;28;20510;-68
2024/01/18 06:10:37;;;;;;;19.10;12.27;;;1.50;99.90;;;;;;4131485;28;20037;-68
2024/01/18 06:12:38;;;;;;;21.85;12.10;;;1.50;99.90;;;;;;4135786;28;20038;-72
2024/01/18 06:14:39;;;;;;;18.27;11.20;;;1.50;99.90;;;;;;4130140;28;20039;-72
2024/01/18 06:16:39;;;;;;;19.00;11.80;;;1.50;99.90;;;;;;4135952;28;20189;-72
2024/01/18 06:18:42;;;;;;;19.13;11.57;;;1.40;99.90;;;;;;4131890;28;20092;-72
2024/01/18 06:20:43;;;;;;;20.38;11.23;;;1.50;99.90;;;;;;4130469;28;20039;-68
2024/01/18 06:22:43;;;;;;;18.52;10.95;;;1.40;99.90;;;;;;4126303;28;20042;-68
2024/01/18 06:24:44;;;;;;;17.48;10.98;;;1.40;99.90;;;;;;4126245;28;20086;-71
2024/01/18 06:26:45;;;;;;;21.88;11.75;;;1.50;99.90;;;;;;4134526;28;20038;-72
2024/01/18 06:28:45;;;;;;;20.17;12.20;;;1.50;99.90;;;;;;4135988;28;20513;-71
2024/01/18 06:30:46;;;;;;;21.00;11.77;;;1.40;99.90;;;;;;4129591;28;20034;-71
2024/01/18 06:32:47;;;;;;;24.92;12.93;;;1.40;99.90;;;;;;4135969;28;20237;-71
2024/01/18 06:34:48;;;;;;;17.88;11.02;;;1.40;99.90;;;;;;4132286;28;20521;-72
2024/01/18 06:36:51;;;;;;;19.15;10.95;;;1.40;99.90;;;;;;4132940;28;20398;-72
2024/01/18 06:38:51;;;;;;;19.42;11.75;;;1.40;99.90;;;;;;4133821;28;20459;-71
2024/01/18 06:40:52;;;;;;;20.80;11.80;;;1.40;99.90;;;;;;4132550;28;20077;-72
2024/01/18 06:42:53;;;;;;;21.65;12.35;;;1.30;99.90;;;;;;4133992;28;20034;-72
2024/01/18 06:44:53;;;;;;;19.10;11.48;;;1.30;99.90;;;;;;4128564;28;20534;-71
2024/01/18 06:46:54;;;;;;;18.60;12.10;;;1.20;99.90;;;;;;4126690;28;20062;-72
2024/01/18 06:48:56;;;;;;;20.55;12.23;;;1.20;99.90;;;;;;4147858;28;20096;-72
2024/01/18 06:50:58;;;;;;;26.45;11.75;;;1.20;99.90;;;;;;4134461;28;20129;-71
2024/01/18 06:52:59;;;;;;;22.98;11.77;;;1.20;99.90;;;;;;4136761;28;20045;-72
2024/01/18 06:55:00;;;;;;;24.67;13.15;;;1.10;99.90;;;;;;4134241;28;20084;-72
2024/01/18 06:57:00;;;;;;;20.67;11.18;;;1.10;99.90;;;;;;4139273;28;20175;-72
2024/01/18 06:59:02;;;;;;;17.13;9.88;;;1.10;99.90;;;;;;4134753;28;20046;-72
2024/01/18 07:01:02;;;;;;;19.50;10.65;;;1.10;99.90;;;;;;4127117;28;20050;-69
2024/01/18 07:03:04;;;;;;;17.50;10.18;;;1.00;99.90;;;;;;4123096;28;20082;-69
2024/01/18 07:05:06;;;;;;;15.68;10.23;;;1.10;99.90;;;;;;4136285;28;20485;-70
2024/01/18 07:07:06;;;;;;;16.40;9.85;;;1.10;99.90;;;;;;4123394;28;20522;-69
2024/01/18 07:09:08;;;;;;;20.58;11.45;;;1.10;99.90;;;;;;4134663;28;20046;-69
2024/01/18 07:11:08;;;;;;;20.10;11.00;;;1.00;99.90;;;;;;4123838;28;20479;-69
2024/01/18 07:13:09;;;;;;;17.75;9.75;;;1.00;99.90;;;;;;4122738;28;20050;-69
2024/01/18 07:15:10;;;;;;;20.02;10.52;;;1.00;99.90;;;;;;4456953;23;20054;-65
2024/01/18 07:17:10;;;;;;;15.07;9.77;;;1.00;99.90;;;;;;4117392;28;20092;-70
2024/01/18 07:19:11;;;;;;;16.55;9.85;;;1.00;99.90;;;;;;4122475;28;20251;-69
2024/01/18 07:21:11;;;;;;;13.70;9.13;;;1.00;99.90;;;;;;4119037;28;20077;-65
2024/01/18 07:23:13;;;;;;;18.13;10.07;;;1.00;99.90;;;;;;4117003;28;20038;-66
2024/01/18 07:25:14;;;;;;;15.48;9.43;;;1.00;99.90;;;;;;4118178;28;20418;-65
2024/01/18 07:27:15;;;;;;;16.30;9.00;;;1.00;99.90;;;;;;4113935;28;20043;-66
2024/01/18 07:29:15;;;;;;;16.67;9.38;;;1.00;99.90;;;;;;4115663;28;20050;-66
2024/01/18 07:31:16;;;;;;;17.30;9.88;;;1.00;99.90;;;;;;4109503;28;20043;-66
2024/01/18 07:33:17;;;;;;;22.98;11.23;;;1.00;99.90;;;;;;4117768;28;20053;-66
2024/01/18 07:35:17;;;;;;;19.20;10.32;;;0.90;99.90;;;;;;4114483;28;20479;-66
2024/01/18 07:37:18;;;;;;;20.90;11.00;;;0.90;99.90;;;;;;4111790;28;20039;-66
2024/01/18 07:39:19;;;;;;;18.30;10.07;;;0.90;99.90;;;;;;4114325;28;20205;-66
2024/01/18 07:41:19;;;;;;;18.83;10.38;;;0.90;99.90;;;;;;4109341;28;20057;-66
2024/01/18 07:43:20;;;;;;;16.90;10.10;;;0.90;99.90;;;;;;4111533;28;20534;-66
2024/01/18 07:45:21;;;;;;;18.77;10.18;;;0.80;99.90;;;;;;4114727;28;20450;-66
2024/01/18 07:47:22;;;;;;;15.50;9.63;;;0.80;99.90;;;;;;4114600;28;20182;-66
2024/01/18 07:49:22;;;;;;;19.52;10.80;;;0.80;99.90;;;;;;4114530;28;20051;-66
2024/01/18 07:51:23;;;;;;;17.80;9.82;;;0.80;99.90;;;;;;4108785;28;20041;-66
2024/01/18 07:53:23;;;;;;;17.27;9.68;;;0.80;99.90;;;;;;4114443;28;20477;-66
2024/01/18 07:55:28;;;;;;;19.77;11.00;;;0.80;99.90;;;;;;4114363;28;20189;-66
2024/01/18 07:57:29;;;;;;;20.85;10.20;;;0.80;99.90;;;;;;4118702;28;20043;-66
2024/01/18 07:59:30;;;;;;;16.73;9.55;;;0.70;99.90;;;;;;4112835;28;20553;-66
2024/01/18 08:01:30;;;;;;;18.70;9.73;;;0.70;99.90;;;;;;4127216;28;20056;-67
2024/01/18 08:03:31;;;;;;;17.00;9.55;;;0.80;99.90;;;;;;4124704;28;20041;-66
2024/01/18 08:05:31;;;;;;;15.48;9.15;;;0.70;99.90;;;;;;4125250;28;20471;-66
2024/01/18 08:07:32;;;;;;;17.40;10.13;;;0.70;99.90;;;;;;4125322;28;20111;-66
2024/01/18 08:09:33;;;;;;;16.67;8.98;;;0.70;99.90;;;;;;4124422;28;20129;-66
2024/01/18 08:11:33;;;;;;;15.73;9.35;;;0.80;99.90;;;;;;4125254;28;20430;-66
2024/01/18 08:13:34;;;;;;;14.43;8.75;;;0.90;99.90;;;;;;4127187;28;20398;-66
2024/01/18 08:15:34;;;;;;;15.70;9.35;;;1.10;99.90;;;;;;4114112;28;20117;-68
2024/01/18 08:17:35;;;;;;;16.25;9.65;;;1.30;99.90;;;;;;4112167;28;20053;-66
2024/01/18 08:19:38;;;;;;;17.33;9.82;;;1.50;99.90;;;;;;4112953;28;20038;-67
2024/01/18 08:21:45;;;;;;;17.48;10.00;;;1.70;99.90;;;;;;4110733;28;20749;-66
2024/01/18 08:23:45;;;;;;;17.88;10.07;;;1.90;99.90;;;;;;4114557;28;20038;-66
2024/01/18 08:25:46;;;;;;;17.35;9.68;;;2.20;99.90;;;;;;4117222;28;20043;-66
2024/01/18 08:27:47;;;;;;;15.40;10.02;;;2.60;99.90;;;;;;4118085;28;20050;-66
2024/01/18 08:29:48;;;;;;;15.20;9.05;;;2.80;99.90;;;;;;4114705;28;20451;-66
2024/01/18 08:31:48;;;;;;;16.42;9.55;;;3.20;99.90;;;;;;4113556;28;20034;-66
2024/01/18 08:33:50;;;;;;;17.17;9.07;;;3.40;99.90;;;;;;4119848;28;20418;-66
2024/01/18 08:35:51;;;;;;;17.08;10.23;;;3.70;99.90;;;;;;4118124;28;20094;-66
2024/01/18 08:37:52;;;;;;;16.80;9.43;;;4.00;99.90;;;;;;4119882;28;20081;-66
2024/01/18 08:39:53;;;;;;;16.75;9.63;;;4.20;99.90;;;;;;4118501;28;20046;-71
2024/01/18 08:41:56;;;;;;;16.23;8.73;;;4.40;99.90;;;;;;4124624;28;20492;-69
2024/01/18 08:43:57;;;;;;;20.27;9.80;;;4.70;99.90;;;;;;4119586;28;20494;-69
2024/01/18 08:45:59;;;;;;;13.95;8.88;;;4.90;99.90;;;;;;4117285;28;20037;-69
2024/01/18 08:48:00;;;;;;;16.70;9.88;;;5.20;99.90;;;;;;4120929;28;20163;-69
2024/01/18 08:50:00;;;;;;;16.20;9.40;;;5.50;99.90;;;;;;4114365;28;20507;-69
2024/01/18 08:52:01;;;;;;;15.95;9.32;;;5.60;99.90;;;;;;4114687;28;20046;-70
2024/01/18 08:54:02;;;;;;;16.60;9.05;;;5.50;99.90;;;;;;4118356;28;20027;-69
2024/01/18 08:56:02;;;;;;;17.30;9.68;;;5.50;99.90;;;;;;4116827;28;20031;-71
2024/01/18 08:58:04;;;;;;;13.43;8.55;;;5.30;99.90;;;;;;4110657;28;20121;-72
2024/01/18 09:00:05;;;;;;;15.13;8.43;;;5.20;99.90;;;;;;4123413;28;20046;-68
2024/01/18 09:02:06;;;;;;;14.82;9.15;;;5.10;99.90;;;;;;4123467;28;20633;-65
2024/01/18 09:04:07;;;;;;;16.17;9.80;;;5.00;99.90;;;;;;4125078;28;20034;-65
2024/01/18 09:06:07;;;;;;;15.25;8.32;;;4.90;99.90;;;;;;4116505;28;20436;-65
2024/01/18 09:08:10;;;;;;;15.18;8.57;;;4.90;99.90;;;;;;4115428;28;20050;-65
2024/01/18 09:10:11;;;;;;;17.83;8.93;;;4.90;99.90;;;;;;4117553;28;20344;-66
2024/01/18 09:12:13;;;;;;;15.45;9.18;;;5.10;99.90;;;;;;4116835;28;20031;-64
2024/01/18 09:14:13;;;;;;;14.00;8.45;;;5.20;99.90;;;;;;4114982;28;20031;-62
2024/01/18 09:16:16;;;;;;;19.00;10.32;;;5.30;99.90;;;;;;4122274;28;20116;-64
2024/01/18 09:18:17;;;;;;;15.80;9.55;;;5.50;99.90;;;;;;4117743;28;20058;-62
2024/01/18 09:20:21;;;;;;;14.32;9.15;;;5.70;99.90;;;;;;4114624;28;20163;-64
2024/01/18 09:22:22;;;;;;;17.05;9.20;;;5.80;99.90;;;;;;4111210;28;20398;-63
2024/01/18 09:24:23;;;;;;;14.00;8.98;;;6.00;99.90;;;;;;4109662;28;20066;-65
2024/01/18 09:26:23;;;;;;;14.77;8.98;;;6.10;99.90;;;;;;4126243;28;20102;-63
2024/01/18 09:28:24;;;;;;;16.27;8.50;;;6.10;99.90;;;;;;4121288;28;20094;-63
2024/01/18 09:30:25;;;;;;;14.93;7.97;;;6.10;99.90;;;;;;4119340;28;20054;-63
2024/01/18 09:32:26;;;;;;;15.98;7.78;;;6.10;99.90;;;;;;4114674;28;20046;-63
2024/01/18 09:34:26;;;;;;;15.93;8.85;;;6.10;99.90;;;;;;4115654;28;20933;-63
2024/01/18 09:36:27;;;;;;;12.73;8.25;;;6.00;99.90;;;;;;4113121;28;20046;-69
2024/01/18 09:38:29;;;;;;;13.18;8.20;;;5.90;99.90;;;;;;4098102;28;20450;-66
2024/01/18 09:40:30;;;;;;;14.95;8.68;;;5.80;99.90;;;;;;4111033;28;20050;-66
2024/01/18 09:42:35;;;;;;;12.00;8.13;;;5.70;99.90;;;;;;4114928;28;20042;-67
2024/01/18 09:44:39;;;;;;;16.00;8.18;;;5.60;99.90;;;;;;4117356;28;20461;-67
2024/01/18 09:46:40;;;;;;;13.40;7.78;;;5.60;99.90;;;;;;4114217;28;20045;-66
2024/01/18 09:48:42;;;;;;;12.00;7.35;;;5.50;99.90;;;;;;4116757;28;20403;-64
2024/01/18 09:50:46;;;;;;;14.88;8.18;;;5.50;99.90;;;;;;4115318;28;20038;-64
2024/01/18 09:52:49;;;;;;;14.23;8.10;;;5.50;99.90;;;;;;4117596;28;20047;-64
2024/01/18 09:54:50;;;;;;;17.10;8.65;;;5.50;99.90;;;;;;4118530;28;20046;-65
2024/01/18 09:58:56;;;;;;;10.52;6.68;;;5.40;99.90;;;;;;4127995;28;20111;-66
2024/01/18 10:00:59;;;;;;;12.52;7.45;;;5.40;99.90;;;;;;4137254;28;20093;-63
2024/01/18 10:02:59;;;;;;;10.50;6.65;;;5.40;99.90;;;;;;4141080;28;20045;-69
2024/01/18 10:07:08;;;;;;;11.25;6.55;;;5.50;99.90;;;;;;4147831;28;20041;-67
2024/01/18 10:09:15;;;;;;;9.77;6.13;;;5.50;99.90;;;;;;4155696;28;20111;-70
2024/01/18 10:11:16;;;;;;;12.25;6.00;;;5.50;99.90;;;;;;4137306;28;20476;-67
2024/01/18 10:13:17;;;;;;;8.05;5.38;;;5.50;99.90;;;;;;4159003;28;20045;-65
2024/01/18 10:15:32;;;;;;;8.20;4.65;;;5.50;99.90;;;;;;4154904;28;20037;-69
2024/01/18 10:17:33;;;;;;;8.32;4.70;;;5.50;99.90;;;;;;4152354;28;20041;-69
2024/01/18 10:19:34;;;;;;;7.68;4.32;;;5.50;99.90;;;;;;4140529;28;20133;-66
2024/01/18 10:21:35;;;;;;;8.73;4.82;;;5.50;99.90;;;;;;4155386;28;20051;-65
2024/01/18 10:23:35;;;;;;;7.30;4.18;;;5.50;99.90;;;;;;4156027;28;20042;-65
2024/01/18 10:25:36;;;;;;;6.60;4.10;;;5.50;99.90;;;;;;4157649;28;20116;-64
2024/01/18 10:27:39;;;;;;;9.18;4.43;;;5.40;99.90;;;;;;4156878;28;20568;-66
2024/01/18 10:29:40;;;;;;;;;;;5.40;99.90;;;;;;4140625;28;20034;-66